Time;durP1;ratioP1;P1;durP2;ratioP2;P2;SDS_P1;SDS_P2;PMS_P1;PMS_P2;Temp;Humidity;BMP_temperature;BMP_pressure;BME280_temperature;BME280_humidity;BME280_pressure;Samples;Min_cycle;Max_cycle;Signal;HPM_P1;HPM_P2
2020/12/29 00:00:56;;;;;;;26.08;17.17;;;2.50;99.90;;;;;;5104413;27;20059;-76
2020/12/29 00:03:22;;;;;;;27.60;17.48;;;2.50;99.90;;;;;;5115069;27;20027;-76
2020/12/29 00:05:48;;;;;;;25.88;18.02;;;2.50;99.90;;;;;;5120878;27;20038;-76
2020/12/29 00:08:14;;;;;;;25.30;16.38;;;2.50;99.90;;;;;;5118691;27;20135;-76
2020/12/29 00:10:41;;;;;;;28.65;18.30;;;2.60;99.90;;;;;;5120494;27;20028;-76
2020/12/29 00:13:07;;;;;;;31.42;18.70;;;2.60;99.90;;;;;;5130256;27;20042;-79
2020/12/29 00:15:33;;;;;;;24.13;15.55;;;2.60;99.90;;;;;;5129448;27;20051;-76
2020/12/29 00:17:58;;;;;;;31.15;19.25;;;2.60;99.90;;;;;;5128635;27;20023;-77
2020/12/29 00:20:24;;;;;;;27.20;16.88;;;2.60;99.90;;;;;;5130778;27;20027;-77
2020/12/29 00:22:49;;;;;;;29.30;17.65;;;2.60;99.90;;;;;;5108234;27;20536;-76
2020/12/29 00:25:16;;;;;;;27.88;17.33;;;2.60;99.90;;;;;;5128285;27;20035;-77
2020/12/29 00:27:42;;;;;;;26.00;16.13;;;2.60;99.90;;;;;;5129468;27;20028;-77
2020/12/29 00:30:08;;;;;;;30.63;17.45;;;2.60;99.90;;;;;;5128566;27;20038;-77
2020/12/29 00:32:33;;;;;;;29.92;18.08;;;2.40;99.90;;;;;;5127130;27;20015;-77
2020/12/29 00:34:59;;;;;;;26.13;16.92;;;2.50;99.90;;;;;;5124684;27;20031;-78
2020/12/29 00:37:25;;;;;;;29.58;17.70;;;2.50;99.90;;;;;;5124380;27;20356;-78
2020/12/29 00:39:50;;;;;;;29.77;18.63;;;2.50;99.90;;;;;;5127237;27;20046;-77
2020/12/29 00:42:16;;;;;;;27.70;18.42;;;2.50;99.90;;;;;;5126796;27;20076;-78
2020/12/29 00:44:41;;;;;;;26.55;16.92;;;2.50;99.90;;;;;;5129345;27;20424;-77
2020/12/29 00:47:07;;;;;;;28.85;18.00;;;2.50;99.90;;;;;;5130081;27;20038;-78
2020/12/29 00:49:37;;;;;;;26.40;17.02;;;2.50;99.90;;;;;;5118008;27;20076;-77
2020/12/29 00:52:02;;;;;;;28.98;17.10;;;2.50;99.90;;;;;;5116830;27;20035;-77
2020/12/29 00:54:28;;;;;;;26.05;16.60;;;2.50;99.90;;;;;;5131040;27;20520;-77
2020/12/29 00:56:53;;;;;;;30.50;18.33;;;2.40;99.90;;;;;;5123522;27;20019;-77
2020/12/29 00:59:19;;;;;;;26.67;17.50;;;2.40;99.90;;;;;;5122148;27;20428;-78
2020/12/29 01:01:44;;;;;;;29.63;17.40;;;2.40;99.90;;;;;;5124646;27;20031;-77
2020/12/29 01:04:10;;;;;;;28.88;18.35;;;2.40;99.90;;;;;;5126026;27;20487;-78
2020/12/29 01:06:36;;;;;;;27.77;17.98;;;2.30;99.90;;;;;;5127306;27;20030;-77
2020/12/29 01:09:01;;;;;;;29.52;18.80;;;2.30;99.90;;;;;;5122836;27;20027;-77
2020/12/29 01:11:27;;;;;;;33.38;17.90;;;2.40;99.90;;;;;;5126429;27;20098;-77
2020/12/29 01:13:52;;;;;;;29.00;17.20;;;2.40;99.90;;;;;;5122003;27;20019;-77
2020/12/29 01:16:18;;;;;;;28.25;17.65;;;2.40;99.90;;;;;;5122943;27;20050;-76
2020/12/29 01:18:43;;;;;;;27.42;17.30;;;2.40;99.90;;;;;;5124507;27;20023;-76
2020/12/29 01:21:10;;;;;;;31.73;18.02;;;2.30;99.90;;;;;;5125705;28;20031;-77
2020/12/29 01:23:36;;;;;;;27.77;17.58;;;2.40;99.90;;;;;;5126833;28;20035;-77
2020/12/29 01:26:02;;;;;;;28.42;17.35;;;2.30;99.90;;;;;;5130570;28;20039;-76
2020/12/29 01:28:28;;;;;;;30.17;17.65;;;2.40;99.90;;;;;;5129789;28;20493;-76
2020/12/29 01:30:54;;;;;;;31.00;17.83;;;2.40;99.90;;;;;;5123050;28;20059;-77
2020/12/29 01:33:19;;;;;;;29.15;17.48;;;2.40;99.90;;;;;;5119029;28;20028;-76
2020/12/29 01:35:44;;;;;;;27.25;17.00;;;2.40;99.90;;;;;;5124273;28;20379;-76
2020/12/29 01:38:10;;;;;;;32.45;18.75;;;2.40;99.90;;;;;;5125064;28;20034;-76
2020/12/29 01:40:36;;;;;;;33.05;19.05;;;2.50;99.90;;;;;;5124083;28;20028;-78
2020/12/29 01:43:02;;;;;;;32.92;18.55;;;2.50;99.90;;;;;;5123912;28;20028;-77
2020/12/29 01:45:28;;;;;;;29.75;19.63;;;2.50;99.90;;;;;;5128354;28;20030;-76
2020/12/29 01:47:54;;;;;;;27.60;17.92;;;2.50;99.90;;;;;;5124622;28;20019;-77
2020/12/29 01:50:22;;;;;;;30.33;18.73;;;2.50;99.90;;;;;;5124190;28;20428;-77
2020/12/29 01:52:56;;;;;;;28.55;18.38;;;2.50;99.90;;;;;;5125377;28;20028;-77
2020/12/29 01:55:22;;;;;;;31.05;19.15;;;2.50;99.90;;;;;;5126333;28;20106;-78
2020/12/29 01:57:48;;;;;;;30.55;18.75;;;2.40;99.90;;;;;;5124341;28;20049;-77
2020/12/29 02:00:14;;;;;;;30.98;18.58;;;2.40;99.90;;;;;;5126075;27;20059;-77
2020/12/29 02:02:42;;;;;;;30.73;18.42;;;2.40;99.90;;;;;;5134063;27;20054;-78
2020/12/29 02:05:08;;;;;;;29.08;18.77;;;2.40;99.90;;;;;;5135232;27;20100;-78
2020/12/29 02:07:34;;;;;;;31.83;19.50;;;2.40;99.90;;;;;;5135326;27;20107;-78
2020/12/29 02:10:00;;;;;;;33.78;20.38;;;2.50;99.90;;;;;;5129729;27;20069;-77
2020/12/29 02:12:31;;;;;;;33.00;20.02;;;2.40;99.90;;;;;;5125200;27;20028;-77
2020/12/29 02:14:58;;;;;;;36.67;20.40;;;2.50;99.90;;;;;;5121165;27;20096;-78
2020/12/29 02:17:25;;;;;;;29.77;18.88;;;2.50;99.90;;;;;;5110359;27;20092;-78
2020/12/29 02:19:51;;;;;;;30.17;17.70;;;2.60;99.90;;;;;;5107721;27;20030;-78
2020/12/29 02:22:18;;;;;;;30.65;18.52;;;2.50;99.90;;;;;;5128380;27;20023;-77
2020/12/29 02:24:48;;;;;;;35.33;20.95;;;2.50;99.90;;;;;;5128476;27;20084;-78
2020/12/29 02:27:13;;;;;;;32.47;19.60;;;2.50;99.90;;;;;;5126884;27;20434;-79
2020/12/29 02:29:39;;;;;;;30.85;19.77;;;2.50;99.90;;;;;;5110228;27;20478;-79
2020/12/29 02:32:05;;;;;;;29.15;18.30;;;2.50;99.90;;;;;;5125876;27;20106;-79
2020/12/29 02:34:30;;;;;;;28.88;18.15;;;2.50;99.90;;;;;;5129119;27;20019;-79
2020/12/29 02:36:56;;;;;;;28.95;18.80;;;2.40;99.90;;;;;;5126221;27;20019;-77
2020/12/29 02:39:22;;;;;;;29.85;17.48;;;2.50;99.90;;;;;;5125284;27;20525;-78
2020/12/29 02:41:48;;;;;;;29.20;18.63;;;;;;;;;;5125164;27;20471;-78
2020/12/29 02:44:19;;;;;;;25.10;16.67;;;2.50;99.90;;;;;;5127692;27;20031;-78
2020/12/29 02:46:48;;;;;;;27.52;18.30;;;2.50;99.90;;;;;;5130269;27;20039;-78
2020/12/29 02:49:14;;;;;;;25.27;16.67;;;2.50;99.90;;;;;;5125980;27;20118;-78
2020/12/29 02:51:40;;;;;;;26.42;17.20;;;2.60;99.90;;;;;;5128134;27;20732;-78
2020/12/29 02:54:06;;;;;;;28.00;18.73;;;2.50;99.90;;;;;;5126092;27;20047;-78
2020/12/29 02:56:31;;;;;;;29.02;16.55;;;2.50;99.90;;;;;;5129213;27;20031;-78
2020/12/29 02:58:57;;;;;;;29.10;17.05;;;2.50;99.90;;;;;;5125373;27;20591;-78
2020/12/29 03:01:27;;;;;;;25.98;16.48;;;2.50;99.90;;;;;;5129884;27;20115;-77
2020/12/29 03:03:52;;;;;;;24.88;16.05;;;2.40;99.90;;;;;;5128274;27;20039;-78
2020/12/29 03:06:18;;;;;;;31.48;18.38;;;2.40;99.90;;;;;;5129207;27;20042;-77
2020/12/29 03:08:43;;;;;;;29.23;17.38;;;2.30;99.90;;;;;;5128033;27;20016;-77
2020/12/29 03:11:08;;;;;;;33.47;21.33;;;2.30;99.90;;;;;;5125253;27;20027;-77
2020/12/29 03:13:34;;;;;;;26.58;17.30;;;2.30;99.90;;;;;;5125141;27;20037;-77
2020/12/29 03:16:00;;;;;;;29.15;17.95;;;2.30;99.90;;;;;;5120952;27;20051;-77
2020/12/29 03:18:25;;;;;;;25.13;17.27;;;2.30;99.90;;;;;;5127232;27;20033;-77
2020/12/29 03:20:51;;;;;;;30.00;18.35;;;2.30;99.90;;;;;;5126311;27;20084;-77
2020/12/29 03:23:16;;;;;;;29.17;17.90;;;2.30;99.90;;;;;;5129771;27;20028;-77
2020/12/29 03:25:41;;;;;;;27.85;17.88;;;2.40;99.90;;;;;;5107593;27;20116;-77
2020/12/29 03:28:07;;;;;;;27.98;18.23;;;2.40;99.90;;;;;;5128069;27;20026;-77
2020/12/29 03:30:32;;;;;;;32.92;17.77;;;2.40;99.90;;;;;;5127639;27;20019;-77
2020/12/29 03:32:58;;;;;;;31.70;17.85;;;2.40;99.90;;;;;;5124145;27;20077;-78
2020/12/29 03:35:23;;;;;;;27.23;16.70;;;2.50;99.90;;;;;;5124654;27;20506;-78
2020/12/29 03:37:49;;;;;;;27.83;17.33;;;2.50;99.90;;;;;;5124771;27;20039;-78
2020/12/29 03:40:14;;;;;;;28.27;16.42;;;2.50;99.90;;;;;;5106141;27;20031;-78
2020/12/29 03:42:40;;;;;;;28.58;16.63;;;2.50;99.90;;;;;;5123963;27;20054;-77
2020/12/29 03:45:05;;;;;;;26.75;17.13;;;2.60;99.90;;;;;;5121972;27;20156;-77
2020/12/29 03:47:30;;;;;;;25.90;16.90;;;2.60;99.90;;;;;;5119234;27;20110;-77
2020/12/29 03:49:56;;;;;;;26.40;16.25;;;2.60;99.90;;;;;;5126250;27;20106;-77
2020/12/29 03:52:21;;;;;;;23.95;16.42;;;2.70;99.90;;;;;;5126093;27;20034;-77
2020/12/29 03:54:47;;;;;;;25.27;17.25;;;2.70;99.90;;;;;;5125608;27;20491;-78
2020/12/29 03:57:12;;;;;;;24.92;16.52;;;2.60;99.90;;;;;;5126336;27;20027;-78
2020/12/29 03:59:38;;;;;;;24.38;16.42;;;2.60;99.90;;;;;;5128449;27;20027;-78
2020/12/29 04:02:03;;;;;;;25.73;16.83;;;2.60;99.90;;;;;;5128250;27;20122;-78
2020/12/29 04:04:29;;;;;;;22.48;17.10;;;2.70;99.90;;;;;;5128172;27;20023;-78
2020/12/29 04:06:54;;;;;;;25.25;16.38;;;2.60;99.90;;;;;;5125037;27;20027;-78
2020/12/29 04:09:28;;;;;;;25.73;16.48;;;2.70;99.90;;;;;;5125884;27;20023;-78
2020/12/29 04:11:54;;;;;;;24.88;15.90;;;2.70;99.90;;;;;;5124113;27;20027;-78
2020/12/29 04:14:19;;;;;;;27.38;17.17;;;2.70;99.90;;;;;;5125455;27;20069;-78
2020/12/29 04:16:45;;;;;;;25.65;16.63;;;2.70;99.90;;;;;;5123087;27;20055;-78
2020/12/29 04:19:10;;;;;;;24.05;15.70;;;2.70;99.90;;;;;;5110081;27;20551;-78
2020/12/29 04:21:39;;;;;;;26.83;17.00;;;2.70;99.90;;;;;;5125225;27;20024;-78
2020/12/29 04:24:04;;;;;;;28.70;17.58;;;2.70;99.90;;;;;;5140165;27;20476;-78
2020/12/29 04:26:33;;;;;;;22.10;15.80;;;2.70;99.90;;;;;;5126727;27;20035;-78
2020/12/29 04:28:58;;;;;;;25.40;17.33;;;2.70;99.90;;;;;;5131298;27;20019;-78
2020/12/29 04:31:24;;;;;;;26.35;17.63;;;2.60;99.90;;;;;;5129620;27;20432;-78
2020/12/29 04:33:49;;;;;;;24.23;15.93;;;2.60;99.90;;;;;;5111096;28;20019;-80
2020/12/29 04:36:15;;;;;;;27.52;16.90;;;2.60;99.90;;;;;;5132290;27;20030;-79
2020/12/29 04:38:40;;;;;;;25.40;16.20;;;2.60;99.90;;;;;;5133835;27;20466;-79
2020/12/29 04:41:06;;;;;;;27.27;16.30;;;2.60;99.90;;;;;;5125217;27;20539;-78
2020/12/29 04:43:32;;;;;;;24.88;16.15;;;2.60;99.90;;;;;;5105583;27;20046;-78
2020/12/29 04:46:03;;;;;;;26.83;17.98;;;2.50;99.90;;;;;;5128378;27;20040;-79
2020/12/29 04:48:29;;;;;;;27.15;16.42;;;2.40;99.90;;;;;;5132811;27;20030;-78
2020/12/29 04:51:07;;;;;;;27.40;17.63;;;2.40;99.90;;;;;;5126607;27;20028;-78
2020/12/29 04:53:34;;;;;;;27.38;17.23;;;2.40;99.90;;;;;;5117894;27;20025;-77
2020/12/29 04:56:06;;;;;;;27.30;16.55;;;2.30;99.90;;;;;;5122627;27;20475;-77
2020/12/29 04:58:33;;;;;;;28.95;18.10;;;2.30;99.90;;;;;;5117399;27;20115;-77
2020/12/29 05:01:09;;;;;;;29.70;17.95;;;2.20;99.90;;;;;;5125244;27;20023;-77
2020/12/29 05:03:45;;;;;;;28.70;18.33;;;2.20;99.90;;;;;;5118261;27;20034;-77
2020/12/29 05:06:12;;;;;;;31.38;17.60;;;2.20;99.90;;;;;;5122102;27;20134;-77
2020/12/29 05:08:43;;;;;;;28.55;17.83;;;2.20;99.90;;;;;;5126263;27;20023;-76
2020/12/29 05:11:08;;;;;;;28.48;17.17;;;2.20;99.90;;;;;;5123042;27;20447;-76
2020/12/29 05:13:34;;;;;;;35.92;18.48;;;2.10;99.90;;;;;;5103794;28;20058;-77
2020/12/29 05:15:59;;;;;;;31.08;18.67;;;2.10;99.90;;;;;;5123132;27;20042;-77
2020/12/29 05:18:26;;;;;;;29.45;17.95;;;2.00;99.90;;;;;;5123077;27;20030;-78
2020/12/29 05:20:51;;;;;;;35.67;18.75;;;2.00;99.90;;;;;;5123434;27;20034;-77
2020/12/29 05:23:17;;;;;;;30.08;17.70;;;2.00;99.90;;;;;;5121830;28;20028;-77
2020/12/29 05:25:46;;;;;;;27.33;17.73;;;1.90;99.90;;;;;;5123081;28;20116;-76
2020/12/29 05:28:12;;;;;;;31.85;19.20;;;1.90;99.90;;;;;;5126127;28;20418;-77
2020/12/29 05:30:39;;;;;;;34.45;20.45;;;1.90;99.90;;;;;;5122967;28;20059;-78
2020/12/29 05:33:13;;;;;;;33.10;17.98;;;1.90;99.90;;;;;;5129960;28;20479;-76
2020/12/29 05:35:39;;;;;;;38.70;21.10;;;2.00;99.90;;;;;;5122402;27;20074;-75
2020/12/29 05:38:10;;;;;;;29.92;19.55;;;1.90;99.90;;;;;;5126455;27;20072;-76
2020/12/29 05:40:36;;;;;;;31.10;19.00;;;1.80;99.90;;;;;;5122366;27;20028;-76
2020/12/29 05:43:03;;;;;;;30.92;18.35;;;1.70;99.90;;;;;;5124955;27;20026;-77
2020/12/29 05:45:31;;;;;;;30.23;19.90;;;1.70;99.90;;;;;;5130522;27;20035;-76
2020/12/29 05:47:58;;;;;;;32.13;19.50;;;1.70;99.90;;;;;;5126857;27;20033;-75
2020/12/29 05:50:25;;;;;;;34.20;20.80;;;1.70;99.90;;;;;;5129548;27;20030;-76
2020/12/29 05:52:55;;;;;;;33.83;20.58;;;1.70;99.90;;;;;;5129123;27;20478;-76
2020/12/29 05:55:21;;;;;;;33.50;18.20;;;1.70;99.90;;;;;;5127048;27;20732;-76
2020/12/29 05:58:10;;;;;;;31.23;19.05;;;1.70;99.90;;;;;;5127230;27;20539;-75
2020/12/29 06:00:36;;;;;;;33.08;20.50;;;1.70;99.90;;;;;;5121351;27;20051;-76
2020/12/29 06:03:04;;;;;;;52.38;29.80;;;1.70;99.90;;;;;;5128425;27;20466;-76
2020/12/29 06:05:32;;;;;;;34.60;21.30;;;1.70;99.90;;;;;;5095069;27;20122;-76
2020/12/29 06:07:59;;;;;;;32.65;19.20;;;1.60;99.90;;;;;;5126218;27;20113;-76
2020/12/29 06:10:26;;;;;;;31.38;19.45;;;1.70;99.90;;;;;;5128096;27;20065;-76
2020/12/29 06:12:54;;;;;;;28.65;19.45;;;1.70;99.90;;;;;;5129251;27;20015;-76
2020/12/29 06:15:35;;;;;;;29.00;18.02;;;1.70;99.90;;;;;;5125045;27;20035;-76
2020/12/29 06:18:05;;;;;;;38.40;20.48;;;1.70;99.90;;;;;;5130546;27;20035;-76
2020/12/29 06:20:33;;;;;;;30.50;18.17;;;1.70;99.90;;;;;;5129160;27;20184;-77
2020/12/29 06:23:01;;;;;;;32.47;19.80;;;1.60;99.90;;;;;;5125340;27;20483;-75
2020/12/29 06:25:34;;;;;;;31.95;18.38;;;1.60;99.90;;;;;;5124465;27;20556;-76
2020/12/29 06:28:01;;;;;;;34.50;20.60;;;1.50;99.90;;;;;;5124100;27;20023;-76
2020/12/29 06:30:28;;;;;;;34.88;21.45;;;1.50;99.90;;;;;;5127535;27;20050;-76
2020/12/29 06:32:55;;;;;;;36.13;20.02;;;1.50;99.90;;;;;;5128212;27;20020;-77
2020/12/29 06:35:21;;;;;;;34.88;19.75;;;1.50;99.90;;;;;;5109980;27;20081;-76
2020/12/29 06:38:14;;;;;;;31.30;18.67;;;1.60;99.90;;;;;;5126962;27;20027;-76
2020/12/29 06:40:42;;;;;;;35.60;19.50;;;1.60;99.90;;;;;;5105334;27;20544;-75
2020/12/29 06:43:08;;;;;;;30.52;18.58;;;1.60;99.90;;;;;;5125255;27;20023;-75
2020/12/29 06:45:36;;;;;;;30.35;17.42;;;1.50;99.90;;;;;;5119949;27;20035;-76
2020/12/29 06:48:18;;;;;;;32.78;19.65;;;1.50;99.90;;;;;;5125971;27;20061;-76
2020/12/29 06:50:44;;;;;;;30.08;19.15;;;1.50;99.90;;;;;;5121774;27;20502;-76
2020/12/29 06:53:19;;;;;;;34.10;18.50;;;1.40;99.90;;;;;;5127568;27;20027;-76
2020/12/29 06:55:49;;;;;;;33.58;20.20;;;1.40;99.90;;;;;;5125023;27;20106;-76
2020/12/29 06:58:31;;;;;;;39.78;22.08;;;1.40;99.90;;;;;;5126524;27;20076;-75
2020/12/29 07:01:20;;;;;;;32.72;19.23;;;1.40;99.90;;;;;;5127252;27;20419;-77
2020/12/29 07:03:47;;;;;;;33.60;19.15;;;1.30;99.90;;;;;;5122876;27;20028;-75
2020/12/29 07:06:12;;;;;;;34.20;20.65;;;1.30;99.90;;;;;;5127464;27;20031;-76
2020/12/29 07:08:39;;;;;;;46.35;23.35;;;1.30;99.90;;;;;;5129443;27;20543;-75
2020/12/29 07:11:17;;;;;;;39.97;20.35;;;1.40;99.90;;;;;;5125004;27;20028;-75
2020/12/29 07:13:51;;;;;;;37.50;21.13;;;1.40;99.90;;;;;;5121728;27;20062;-75
2020/12/29 07:16:24;;;;;;;36.15;20.58;;;1.40;99.90;;;;;;5124942;27;20070;-76
2020/12/29 07:18:50;;;;;;;37.35;20.67;;;1.40;99.90;;;;;;5124449;27;20038;-75
2020/12/29 07:21:25;;;;;;;35.30;19.98;;;1.40;99.90;;;;;;5125361;27;20023;-76
2020/12/29 07:23:51;;;;;;;37.60;21.92;;;1.40;99.90;;;;;;5124866;27;20066;-75
2020/12/29 07:26:21;;;;;;;39.60;20.45;;;1.40;99.90;;;;;;5125264;27;20414;-75
2020/12/29 07:28:51;;;;;;;39.10;20.73;;;1.40;99.90;;;;;;5124116;27;20051;-76
2020/12/29 07:31:17;;;;;;;35.13;19.45;;;1.40;99.90;;;;;;5124079;27;20023;-76
2020/12/29 07:33:49;;;;;;;35.83;19.95;;;1.40;99.90;;;;;;5128298;27;20548;-76
2020/12/29 07:36:17;;;;;;;32.40;18.83;;;1.40;99.90;;;;;;5129228;27;20369;-76
2020/12/29 07:38:46;;;;;;;33.13;19.33;;;1.30;99.90;;;;;;5128726;27;20024;-76
2020/12/29 07:41:14;;;;;;;32.88;19.15;;;1.30;99.90;;;;;;5132219;27;20043;-76
2020/12/29 07:43:39;;;;;;;29.60;18.42;;;1.40;99.90;;;;;;5133242;27;20023;-77
2020/12/29 07:46:06;;;;;;;37.00;20.75;;;1.40;99.90;;;;;;5125881;27;20560;-76
2020/12/29 07:48:31;;;;;;;32.92;19.58;;;1.30;99.90;;;;;;5128732;27;20515;-76
2020/12/29 07:51:00;;;;;;;33.45;21.10;;;1.30;99.90;;;;;;5133082;27;20061;-76
2020/12/29 07:53:25;;;;;;;34.40;19.50;;;1.30;99.90;;;;;;5129637;27;20070;-76
2020/12/29 07:55:51;;;;;;;32.80;19.05;;;1.40;99.90;;;;;;5129061;27;20475;-76
2020/12/29 07:58:17;;;;;;;29.48;18.90;;;1.30;99.90;;;;;;5127666;27;20371;-76
2020/12/29 08:00:42;;;;;;;29.02;19.05;;;1.40;99.90;;;;;;5123583;27;20464;-76
2020/12/29 08:03:09;;;;;;;28.90;16.85;;;1.40;99.90;;;;;;5125106;27;20049;-77
2020/12/29 08:05:35;;;;;;;31.27;18.60;;;1.50;99.90;;;;;;5107901;28;20058;-77
2020/12/29 08:08:19;;;;;;;31.30;19.90;;;1.50;99.90;;;;;;5129608;27;20375;-77
2020/12/29 08:10:45;;;;;;;29.27;16.20;;;1.50;99.90;;;;;;5125633;27;20464;-76
2020/12/29 08:13:13;;;;;;;37.47;20.75;;;1.50;99.90;;;;;;5131015;27;20029;-76
2020/12/29 08:15:43;;;;;;;37.00;21.42;;;1.50;99.90;;;;;;5128423;27;20063;-75
2020/12/29 08:18:09;;;;;;;31.83;18.35;;;1.60;99.90;;;;;;5125150;27;20043;-77
2020/12/29 08:20:47;;;;;;;37.88;21.45;;;1.50;99.90;;;;;;5127641;27;20065;-75
2020/12/29 08:23:14;;;;;;;32.55;19.65;;;1.50;99.90;;;;;;5124339;27;20015;-77
2020/12/29 08:25:40;;;;;;;39.67;20.27;;;1.60;99.90;;;;;;5130510;27;20097;-76
2020/12/29 08:28:07;;;;;;;44.83;23.23;;;1.60;99.90;;;;;;5120753;27;20024;-76
2020/12/29 08:30:36;;;;;;;39.90;21.25;;;1.60;99.90;;;;;;5121383;27;20062;-75
2020/12/29 08:33:04;;;;;;;34.92;20.10;;;1.70;99.90;;;;;;5117741;27;20034;-75
2020/12/29 08:35:43;;;;;;;31.90;19.15;;;1.70;99.90;;;;;;5125829;27;20107;-76
2020/12/29 08:38:26;;;;;;;38.30;19.63;;;1.70;99.90;;;;;;5122998;27;20082;-76
2020/12/29 08:41:08;;;;;;;34.13;19.92;;;1.70;99.90;;;;;;5121988;27;20023;-76
2020/12/29 08:43:51;;;;;;;27.02;16.02;;;1.80;99.90;;;;;;5105399;27;20034;-76
2020/12/29 08:46:20;;;;;;;24.40;15.98;;;1.80;99.90;;;;;;5115577;27;20054;-76
2020/12/29 08:48:58;;;;;;;29.52;16.13;;;1.80;99.90;;;;;;5126633;27;20376;-77
2020/12/29 08:51:32;;;;;;;25.30;16.75;;;1.80;99.90;;;;;;5102935;27;20028;-77
2020/12/29 08:54:11;;;;;;;29.65;16.80;;;1.80;99.90;;;;;;5104817;28;20035;-75
2020/12/29 08:56:37;;;;;;;37.63;23.13;;;1.90;99.90;;;;;;5105239;27;20050;-76
2020/12/29 08:59:22;;;;;;;27.30;16.42;;;1.90;99.90;;;;;;5107236;27;20023;-75
2020/12/29 09:01:55;;;;;;;25.60;15.82;;;2.00;99.90;;;;;;5105972;27;20031;-76
2020/12/29 09:04:32;;;;;;;27.50;16.58;;;2.00;99.90;;;;;;5106233;27;20475;-76
2020/12/29 09:07:01;;;;;;;24.67;15.38;;;2.00;99.90;;;;;;5103504;27;20036;-76
2020/12/29 09:09:27;;;;;;;25.35;14.35;;;2.10;99.90;;;;;;5105210;27;20027;-76
2020/12/29 09:12:11;;;;;;;25.23;15.70;;;2.10;99.90;;;;;;5104706;27;20410;-76
2020/12/29 09:14:38;;;;;;;26.42;16.08;;;2.20;99.90;;;;;;5104107;28;20094;-77
2020/12/29 09:17:06;;;;;;;27.52;17.20;;;2.20;99.90;;;;;;5102999;27;20046;-76
2020/12/29 09:19:33;;;;;;;25.33;15.55;;;2.20;99.90;;;;;;5106939;28;20031;-75
2020/12/29 09:22:12;;;;;;;31.83;17.27;;;2.20;99.90;;;;;;5103693;28;20019;-75
2020/12/29 09:24:51;;;;;;;26.30;15.93;;;2.20;99.90;;;;;;5102563;28;20035;-76
2020/12/29 09:27:28;;;;;;;24.90;16.38;;;2.20;99.90;;;;;;5103811;28;20084;-75
2020/12/29 09:29:54;;;;;;;24.48;16.02;;;2.30;99.90;;;;;;5106084;28;20217;-76
2020/12/29 09:32:20;;;;;;;24.85;14.95;;;2.20;99.90;;;;;;5105095;28;20036;-76
2020/12/29 09:34:46;;;;;;;26.08;15.10;;;2.30;99.90;;;;;;5106608;28;20035;-76
2020/12/29 09:37:11;;;;;;;28.10;15.85;;;2.30;99.90;;;;;;5105141;28;20110;-76
2020/12/29 09:39:37;;;;;;;23.90;14.48;;;2.40;99.90;;;;;;5070460;28;20151;-77
2020/12/29 09:42:02;;;;;;;26.10;15.70;;;2.40;99.90;;;;;;5104372;28;20418;-77
2020/12/29 09:44:28;;;;;;;26.38;14.40;;;2.40;99.90;;;;;;5110874;28;20046;-77
2020/12/29 09:46:53;;;;;;;23.15;13.88;;;2.50;99.90;;;;;;5106854;28;20038;-77
2020/12/29 09:49:19;;;;;;;23.80;15.20;;;2.50;99.90;;;;;;5106502;28;20031;-77
2020/12/29 09:51:44;;;;;;;24.40;13.38;;;2.50;99.90;;;;;;5086325;28;20511;-76
2020/12/29 09:54:09;;;;;;;33.70;18.05;;;2.50;99.90;;;;;;5106394;28;20039;-76
2020/12/29 09:56:38;;;;;;;21.95;14.38;;;2.60;99.90;;;;;;5104619;28;20045;-77
2020/12/29 09:59:03;;;;;;;24.83;13.98;;;2.60;99.90;;;;;;5106237;28;20122;-76
2020/12/29 10:01:29;;;;;;;25.80;14.85;;;2.60;99.90;;;;;;5106046;28;20546;-76
2020/12/29 10:03:54;;;;;;;21.90;12.93;;;2.60;99.90;;;;;;5104034;28;20020;-77
2020/12/29 10:06:20;;;;;;;20.00;12.30;;;2.70;99.90;;;;;;5103899;28;20794;-76
2020/12/29 10:08:45;;;;;;;24.25;15.40;;;2.70;99.90;;;;;;5102744;28;20035;-76
2020/12/29 10:11:12;;;;;;;23.95;14.70;;;2.80;99.90;;;;;;5099653;28;20084;-76
2020/12/29 10:13:37;;;;;;;23.52;13.70;;;2.80;99.90;;;;;;5104617;28;20027;-77
2020/12/29 10:16:03;;;;;;;23.13;13.63;;;2.80;99.90;;;;;;5101239;28;20043;-76
2020/12/29 10:18:29;;;;;;;25.05;15.35;;;2.90;99.90;;;;;;5107468;28;20027;-76
2020/12/29 10:20:54;;;;;;;24.27;14.52;;;3.00;99.90;;;;;;5103470;28;20050;-76
2020/12/29 10:23:20;;;;;;;23.48;14.90;;;3.10;99.90;;;;;;5108509;27;20032;-75
2020/12/29 10:25:46;;;;;;;20.73;12.32;;;3.20;99.90;;;;;;5089354;28;20050;-75
2020/12/29 10:28:12;;;;;;;17.55;11.50;;;3.30;99.90;;;;;;5113102;27;20102;-75
2020/12/29 10:30:37;;;;;;;19.65;12.60;;;3.60;99.90;;;;;;5124300;27;20118;-76
2020/12/29 10:33:03;;;;;;;17.67;11.77;;;3.60;99.90;;;;;;5124597;27;20123;-77
2020/12/29 10:35:28;;;;;;;18.13;11.68;;;3.50;99.90;;;;;;5125987;27;20028;-76
2020/12/29 10:37:55;;;;;;;27.98;17.45;;;3.50;99.90;;;;;;5125227;27;20424;-76
2020/12/29 10:40:21;;;;;;;21.20;13.70;;;3.50;99.90;;;;;;5126316;27;20038;-76
2020/12/29 10:42:47;;;;;;;18.63;10.95;;;3.60;99.90;;;;;;5132636;27;20027;-77
2020/12/29 10:45:12;;;;;;;15.45;10.60;;;3.70;99.90;;;;;;5127068;27;20040;-75
2020/12/29 10:47:38;;;;;;;15.10;9.95;;;3.70;99.90;;;;;;5114356;27;20019;-75
2020/12/29 10:50:03;;;;;;;16.02;10.10;;;3.90;99.90;;;;;;5129432;27;20154;-76
2020/12/29 10:52:29;;;;;;;17.88;10.70;;;4.00;99.90;;;;;;5126001;27;20471;-75
2020/12/29 10:54:54;;;;;;;16.83;10.77;;;4.00;99.90;;;;;;5123817;27;20091;-75
2020/12/29 10:57:20;;;;;;;13.27;9.32;;;4.00;99.90;;;;;;5125647;27;20024;-77
2020/12/29 10:59:45;;;;;;;14.35;9.20;;;3.90;99.90;;;;;;5129289;27;20092;-75
2020/12/29 11:02:11;;;;;;;16.63;10.07;;;3.90;99.90;;;;;;5125579;27;20029;-75
2020/12/29 11:04:36;;;;;;;16.13;9.98;;;4.00;99.90;;;;;;5128394;27;20027;-75
2020/12/29 11:07:02;;;;;;;17.75;10.43;;;3.90;99.90;;;;;;5126537;27;20033;-75
2020/12/29 11:09:28;;;;;;;15.90;10.00;;;4.00;99.90;;;;;;5125132;27;20113;-76
2020/12/29 11:11:53;;;;;;;15.18;9.48;;;4.10;99.90;;;;;;5128142;27;20080;-76
2020/12/29 11:14:19;;;;;;;13.38;9.50;;;4.10;99.90;;;;;;5108962;27;20024;-76
2020/12/29 11:16:49;;;;;;;14.77;9.82;;;4.20;99.90;;;;;;5126084;27;20117;-76
2020/12/29 11:19:14;;;;;;;13.05;9.30;;;4.20;99.90;;;;;;5117594;27;20379;-77
2020/12/29 11:21:40;;;;;;;13.70;10.00;;;4.30;99.90;;;;;;5116037;27;20071;-75
2020/12/29 11:24:05;;;;;;;13.98;8.35;;;4.30;99.90;;;;;;5118035;27;20644;-77
2020/12/29 11:26:32;;;;;;;17.13;10.27;;;4.40;99.90;;;;;;5123402;27;20048;-76
2020/12/29 11:28:57;;;;;;;13.70;9.52;;;4.50;99.90;;;;;;5087503;27;20108;-76
2020/12/29 11:31:27;;;;;;;13.20;9.30;;;4.50;99.90;;;;;;5101532;27;20019;-75
2020/12/29 11:33:53;;;;;;;16.10;11.10;;;4.50;99.90;;;;;;5131000;27;20026;-76
2020/12/29 11:36:25;;;;;;;14.25;9.88;;;4.50;99.90;;;;;;5113059;27;20016;-76
2020/12/29 11:38:51;;;;;;;15.75;10.07;;;4.50;99.90;;;;;;5120966;27;20028;-77
2020/12/29 11:41:16;;;;;;;12.77;9.20;;;4.50;99.90;;;;;;5102962;27;20032;-76
2020/12/29 11:43:42;;;;;;;15.82;10.30;;;4.60;99.90;;;;;;5122313;27;20028;-76
2020/12/29 11:46:11;;;;;;;12.75;9.50;;;4.60;99.90;;;;;;5119859;27;20062;-76
2020/12/29 11:48:37;;;;;;;13.68;8.25;;;4.60;99.90;;;;;;5120158;27;20022;-76
2020/12/29 11:51:07;;;;;;;11.75;8.52;;;4.60;99.90;;;;;;5102015;27;20038;-77
2020/12/29 11:53:33;;;;;;;18.60;9.73;;;4.40;99.90;;;;;;5123968;27;20020;-76
2020/12/29 11:55:58;;;;;;;14.05;8.65;;;4.50;99.90;;;;;;5122551;27;20038;-77
2020/12/29 11:58:24;;;;;;;14.30;8.73;;;4.50;99.90;;;;;;5122566;27;20034;-76
2020/12/29 12:00:50;;;;;;;14.23;9.38;;;4.40;99.90;;;;;;5107704;27;20031;-75
2020/12/29 12:03:15;;;;;;;11.60;7.70;;;4.50;99.90;;;;;;5103708;27;20028;-75
2020/12/29 12:05:41;;;;;;;11.30;8.20;;;4.50;99.90;;;;;;5116786;27;20031;-76
2020/12/29 12:08:06;;;;;;;14.52;9.57;;;4.50;99.90;;;;;;5100461;27;20040;-77
2020/12/29 12:10:32;;;;;;;14.48;9.52;;;4.50;99.90;;;;;;5125974;27;20045;-75
2020/12/29 12:12:57;;;;;;;12.32;8.98;;;4.50;99.90;;;;;;5123341;27;20028;-75
2020/12/29 12:15:23;;;;;;;13.75;9.27;;;4.50;99.90;;;;;;5100617;27;20048;-76
2020/12/29 12:17:48;;;;;;;16.13;11.15;;;4.50;99.90;;;;;;5112154;27;20028;-79
2020/12/29 12:20:14;;;;;;;24.02;11.02;;;4.60;99.90;;;;;;5088870;28;20039;-78
2020/12/29 12:22:39;;;;;;;15.25;9.60;;;4.60;99.90;;;;;;5108807;27;20828;-78
2020/12/29 12:25:05;;;;;;;14.25;8.52;;;4.60;99.90;;;;;;5113468;27;20092;-78
2020/12/29 12:27:31;;;;;;;22.02;11.60;;;4.60;99.90;;;;;;5096261;28;20027;-76
2020/12/29 12:29:56;;;;;;;12.32;8.65;;;4.80;99.90;;;;;;5105256;27;20054;-76
2020/12/29 12:32:22;;;;;;;13.90;8.15;;;4.80;99.90;;;;;;5107847;27;20038;-77
2020/12/29 12:34:48;;;;;;;13.70;9.88;;;4.80;99.90;;;;;;5108890;27;20066;-78
2020/12/29 12:37:13;;;;;;;12.73;9.23;;;4.90;99.90;;;;;;5119069;27;20031;-79
2020/12/29 12:39:45;;;;;;;10.80;7.82;;;5.10;99.90;;;;;;5121852;28;20566;-79